sensor_id;sensor_type;location;lat;lon;timestamp;pressure;altitude;pressure_sealevel;temperature;humidity
31121;BME280;17770;45.966;13.632;2022-12-18T00:01:23;101649.66;;;13.41;61.27
31121;BME280;17770;45.966;13.632;2022-12-18T00:03:50;101652.28;;;13.40;61.33
31121;BME280;17770;45.966;13.632;2022-12-18T00:06:16;101666.13;;;13.39;60.88
31121;BME280;17770;45.966;13.632;2022-12-18T00:08:42;101659.19;;;13.39;61.10
31121;BME280;17770;45.966;13.632;2022-12-18T00:11:13;101666.13;;;13.39;60.75
31121;BME280;17770;45.966;13.632;2022-12-18T00:13:39;101662.69;;;13.38;61.23
31121;BME280;17770;45.966;13.632;2022-12-18T00:16:06;101656.63;;;13.38;61.15
31121;BME280;17770;45.966;13.632;2022-12-18T00:18:32;101668.72;;;13.37;61.37
31121;BME280;17770;45.966;13.632;2022-12-18T00:20:59;101669.63;;;13.36;60.78
31121;BME280;17770;45.966;13.632;2022-12-18T00:23:26;101672.22;;;13.36;61.25
31121;BME280;17770;45.966;13.632;2022-12-18T00:25:52;101674.81;;;13.36;61.48
31121;BME280;17770;45.966;13.632;2022-12-18T00:28:18;101677.41;;;13.36;60.95
31121;BME280;17770;45.966;13.632;2022-12-18T00:30:45;101671.34;;;13.36;61.06
31121;BME280;17770;45.966;13.632;2022-12-18T00:33:10;101680.88;;;13.35;61.39
31121;BME280;17770;45.966;13.632;2022-12-18T00:35:36;101688.66;;;13.35;61.14
31121;BME280;17770;45.966;13.632;2022-12-18T00:38:02;101696.47;;;13.34;60.63
31121;BME280;17770;45.966;13.632;2022-12-18T00:40:28;101711.09;;;13.35;60.43
31121;BME280;17770;45.966;13.632;2022-12-18T00:42:54;101707.69;;;13.33;61.13
31121;BME280;17770;45.966;13.632;2022-12-18T00:45:27;101708.53;;;13.33;61.42
31121;BME280;17770;45.966;13.632;2022-12-18T00:47:53;101707.69;;;13.33;60.70
31121;BME280;17770;45.966;13.632;2022-12-18T00:50:20;101706.81;;;13.32;60.40
31121;BME280;17770;45.966;13.632;2022-12-18T00:52:46;101707.72;;;13.31;60.65
31121;BME280;17770;45.966;13.632;2022-12-18T00:55:11;101706.00;;;13.32;60.57
31121;BME280;17770;45.966;13.632;2022-12-18T00:57:37;101705.16;;;13.30;60.96
31121;BME280;17770;45.966;13.632;2022-12-18T01:00:04;101704.25;;;13.31;61.32
31121;BME280;17770;45.966;13.632;2022-12-18T01:02:30;101699.16;;;13.28;60.66
31121;BME280;17770;45.966;13.632;2022-12-18T01:04:56;101703.47;;;13.29;61.39
31121;BME280;17770;45.966;13.632;2022-12-18T01:07:22;101701.69;;;13.29;60.46
31121;BME280;17770;45.966;13.632;2022-12-18T01:09:48;101712.06;;;13.29;61.25
31121;BME280;17770;45.966;13.632;2022-12-18T01:12:14;101715.56;;;13.28;61.24
31121;BME280;17770;45.966;13.632;2022-12-18T01:14:40;101710.38;;;13.28;60.70
31121;BME280;17770;45.966;13.632;2022-12-18T01:17:06;101709.50;;;13.28;60.60
31121;BME280;17770;45.966;13.632;2022-12-18T01:19:32;101706.06;;;13.27;60.26
31121;BME280;17770;45.966;13.632;2022-12-18T01:21:58;101701.72;;;13.28;61.24
31121;BME280;17770;45.966;13.632;2022-12-18T01:24:24;101700.88;;;13.27;60.86
31121;BME280;17770;45.966;13.632;2022-12-18T01:26:50;101701.75;;;13.26;60.85
31121;BME280;17770;45.966;13.632;2022-12-18T01:29:16;101702.63;;;13.27;60.91
31121;BME280;17770;45.966;13.632;2022-12-18T01:31:42;101708.66;;;13.26;61.29
31121;BME280;17770;45.966;13.632;2022-12-18T01:34:08;101707.84;;;13.25;61.22
31121;BME280;17770;45.966;13.632;2022-12-18T01:36:35;101707.88;;;13.24;60.69
31121;BME280;17770;45.966;13.632;2022-12-18T01:39:09;101718.22;;;13.24;60.31
31121;BME280;17770;45.966;13.632;2022-12-18T01:41:36;101715.66;;;13.24;61.02
31121;BME280;17770;45.966;13.632;2022-12-18T01:49:53;101730.34;;;13.22;60.60
31121;BME280;17770;45.966;13.632;2022-12-18T01:52:19;101729.50;;;13.21;60.85
31121;BME280;17770;45.966;13.632;2022-12-18T01:54:46;101728.63;;;13.21;60.99
31121;BME280;17770;45.966;13.632;2022-12-18T01:57:12;101736.41;;;13.21;60.89
31121;BME280;17770;45.966;13.632;2022-12-18T01:59:38;101741.56;;;13.21;60.44
31121;BME280;17770;45.966;13.632;2022-12-18T02:02:04;101752.84;;;13.20;60.20
31121;BME280;17770;45.966;13.632;2022-12-18T02:04:31;101751.13;;;13.19;61.13
31121;BME280;17770;45.966;13.632;2022-12-18T02:06:59;101759.72;;;13.21;60.99
31121;BME280;17770;45.966;13.632;2022-12-18T02:09:33;101763.22;;;13.18;60.32
31121;BME280;17770;45.966;13.632;2022-12-18T02:14:42;101769.28;;;13.19;60.63
31121;BME280;17770;45.966;13.632;2022-12-18T02:17:11;101766.69;;;13.19;61.05
31121;BME280;17770;45.966;13.632;2022-12-18T02:24:44;101773.63;;;13.17;60.81
31121;BME280;17770;45.966;13.632;2022-12-18T02:27:15;101777.06;;;13.17;60.45
31121;BME280;17770;45.966;13.632;2022-12-18T02:29:44;101778.78;;;13.17;61.00
31121;BME280;17770;45.966;13.632;2022-12-18T02:32:14;101774.47;;;13.16;60.46
31121;BME280;17770;45.966;13.632;2022-12-18T02:34:40;101781.41;;;13.15;60.19
31121;BME280;17770;45.966;13.632;2022-12-18T02:37:12;101780.53;;;13.15;60.24
31121;BME280;17770;45.966;13.632;2022-12-18T02:39:40;101789.19;;;13.15;60.62
31121;BME280;17770;45.966;13.632;2022-12-18T02:42:10;101788.31;;;13.15;60.43
31121;BME280;17770;45.966;13.632;2022-12-18T02:44:49;101792.63;;;13.14;60.37
31121;BME280;17770;45.966;13.632;2022-12-18T02:47:19;101798.72;;;13.13;60.25
31121;BME280;17770;45.966;13.632;2022-12-18T02:59:50;101807.41;;;13.11;60.53
31121;BME280;17770;45.966;13.632;2022-12-18T03:02:29;101802.22;;;13.11;60.64
31121;BME280;17770;45.966;13.632;2022-12-18T03:07:33;101816.00;;;13.11;60.41
31121;BME280;17770;45.966;13.632;2022-12-18T03:10:00;101809.13;;;13.10;60.20
31121;BME280;17770;45.966;13.632;2022-12-18T03:12:31;101808.25;;;13.09;60.50
31121;BME280;17770;45.966;13.632;2022-12-18T03:15:06;101803.94;;;13.10;60.01
31121;BME280;17770;45.966;13.632;2022-12-18T03:17:35;101814.34;;;13.08;60.15
31121;BME280;17770;45.966;13.632;2022-12-18T03:20:14;101816.03;;;13.09;59.91
31121;BME280;17770;45.966;13.632;2022-12-18T03:22:40;101820.38;;;13.07;60.42
31121;BME280;17770;45.966;13.632;2022-12-18T03:25:09;101816.06;;;13.08;60.44
31121;BME280;17770;45.966;13.632;2022-12-18T03:27:37;101821.25;;;13.06;59.93
31121;BME280;17770;45.966;13.632;2022-12-18T03:30:08;101826.47;;;13.05;60.32
31121;BME280;17770;45.966;13.632;2022-12-18T03:35:06;101829.06;;;13.05;60.36
31121;BME280;17770;45.966;13.632;2022-12-18T03:37:36;101833.34;;;13.06;60.28
31121;BME280;17770;45.966;13.632;2022-12-18T03:40:03;101834.25;;;13.05;60.42
31121;BME280;17770;45.966;13.632;2022-12-18T03:45:11;101835.09;;;13.04;60.19
31121;BME280;17770;45.966;13.632;2022-12-18T03:47:41;101842.00;;;13.05;59.69
31121;BME280;17770;45.966;13.632;2022-12-18T03:55:28;101849.81;;;13.03;60.01
31121;BME280;17770;45.966;13.632;2022-12-18T03:57:59;101842.03;;;13.03;59.69
31121;BME280;17770;45.966;13.632;2022-12-18T04:00:34;101844.63;;;13.03;59.71
31121;BME280;17770;45.966;13.632;2022-12-18T04:03:06;101851.53;;;13.03;60.29
31121;BME280;17770;45.966;13.632;2022-12-18T04:05:40;101853.25;;;13.02;59.71
31121;BME280;17770;45.966;13.632;2022-12-18T04:08:09;101855.00;;;13.02;60.13
31121;BME280;17770;45.966;13.632;2022-12-18T04:10:38;101864.50;;;13.01;59.75
31121;BME280;17770;45.966;13.632;2022-12-18T04:13:04;101861.03;;;13.01;59.66
31121;BME280;17770;45.966;13.632;2022-12-18T04:15:31;101861.03;;;13.01;59.94
31121;BME280;17770;45.966;13.632;2022-12-18T04:17:58;101864.50;;;13.00;60.00
31121;BME280;17770;45.966;13.632;2022-12-18T04:20:35;101869.69;;;13.00;60.64
31121;BME280;17770;45.966;13.632;2022-12-18T04:23:02;101885.22;;;13.00;59.79
31121;BME280;17770;45.966;13.632;2022-12-18T04:25:28;101880.06;;;12.98;59.70
31121;BME280;17770;45.966;13.632;2022-12-18T04:28:10;101886.09;;;12.97;60.32
31121;BME280;17770;45.966;13.632;2022-12-18T04:30:38;101893.00;;;12.98;60.23
31121;BME280;17770;45.966;13.632;2022-12-18T04:33:08;101891.28;;;12.97;60.24
31121;BME280;17770;45.966;13.632;2022-12-18T04:35:34;101891.28;;;12.97;60.12
31121;BME280;17770;45.966;13.632;2022-12-18T04:38:00;101896.47;;;12.96;60.50
31121;BME280;17770;45.966;13.632;2022-12-18T04:40:26;101898.22;;;12.97;59.98
31121;BME280;17770;45.966;13.632;2022-12-18T04:42:52;101900.81;;;12.95;60.13
31121;BME280;17770;45.966;13.632;2022-12-18T04:45:18;101899.97;;;12.95;60.17
31121;BME280;17770;45.966;13.632;2022-12-18T04:47:44;101909.44;;;12.94;59.75
31121;BME280;17770;45.966;13.632;2022-12-18T04:50:10;101910.34;;;12.93;59.99
31121;BME280;17770;45.966;13.632;2022-12-18T04:52:36;101912.91;;;12.95;60.07
31121;BME280;17770;45.966;13.632;2022-12-18T04:55:02;101915.50;;;12.93;60.54
31121;BME280;17770;45.966;13.632;2022-12-18T04:57:27;101926.75;;;12.94;59.94
31121;BME280;17770;45.966;13.632;2022-12-18T04:59:53;101925.00;;;12.93;59.54
31121;BME280;17770;45.966;13.632;2022-12-18T05:02:19;101935.34;;;12.94;59.88
31121;BME280;17770;45.966;13.632;2022-12-18T05:04:45;101930.19;;;12.93;60.35
31121;BME280;17770;45.966;13.632;2022-12-18T05:07:11;101943.13;;;12.93;59.22
31121;BME280;17770;45.966;13.632;2022-12-18T05:09:37;101945.72;;;12.93;60.54
31121;BME280;17770;45.966;13.632;2022-12-18T05:12:03;101944.84;;;12.92;60.23
31121;BME280;17770;45.966;13.632;2022-12-18T05:14:28;101951.78;;;12.92;59.57
31121;BME280;17770;45.966;13.632;2022-12-18T05:16:54;101952.63;;;12.92;59.90
31121;BME280;17770;45.966;13.632;2022-12-18T05:19:20;101963.00;;;12.91;60.16
31121;BME280;17770;45.966;13.632;2022-12-18T05:21:46;101957.81;;;12.91;60.23
31121;BME280;17770;45.966;13.632;2022-12-18T05:24:12;101960.41;;;12.91;60.22
31121;BME280;17770;45.966;13.632;2022-12-18T05:26:38;101951.75;;;12.93;59.80
31121;BME280;17770;45.966;13.632;2022-12-18T05:29:04;101960.41;;;12.91;59.56
31121;BME280;17770;45.966;13.632;2022-12-18T05:31:30;101953.50;;;12.91;60.00
31121;BME280;17770;45.966;13.632;2022-12-18T05:33:56;101963.88;;;12.91;59.72
31121;BME280;17770;45.966;13.632;2022-12-18T05:36:21;101971.63;;;12.91;59.59
31121;BME280;17770;45.966;13.632;2022-12-18T05:38:48;101973.34;;;12.91;59.63
31121;BME280;17770;45.966;13.632;2022-12-18T05:41:14;101969.94;;;12.90;60.27
31121;BME280;17770;45.966;13.632;2022-12-18T05:43:40;101980.28;;;12.90;59.74
31121;BME280;17770;45.966;13.632;2022-12-18T05:46:07;101970.78;;;12.89;59.69
31121;BME280;17770;45.966;13.632;2022-12-18T05:48:33;101981.16;;;12.89;60.00
31121;BME280;17770;45.966;13.632;2022-12-18T05:51:06;101974.28;;;12.88;59.75
31121;BME280;17770;45.966;13.632;2022-12-18T05:53:32;101975.13;;;12.89;59.40
31121;BME280;17770;45.966;13.632;2022-12-18T05:56:02;101969.94;;;12.87;59.86
31121;BME280;17770;45.966;13.632;2022-12-18T05:58:29;101975.13;;;12.89;59.54
31121;BME280;17770;45.966;13.632;2022-12-18T06:00:55;101976.88;;;12.87;59.52
31121;BME280;17770;45.966;13.632;2022-12-18T06:03:21;101981.19;;;12.86;60.03
31121;BME280;17770;45.966;13.632;2022-12-18T06:05:47;101984.66;;;12.87;60.00
31121;BME280;17770;45.966;13.632;2022-12-18T06:08:13;101989.81;;;12.87;60.33
31121;BME280;17770;45.966;13.632;2022-12-18T06:10:39;101983.81;;;12.85;59.33
31121;BME280;17770;45.966;13.632;2022-12-18T06:13:05;101988.97;;;12.85;59.65
31121;BME280;17770;45.966;13.632;2022-12-18T06:15:32;101984.69;;;12.84;59.57
31121;BME280;17770;45.966;13.632;2022-12-18T06:17:59;101984.66;;;12.85;60.17
31121;BME280;17770;45.966;13.632;2022-12-18T06:20:25;101984.69;;;12.84;60.00
31121;BME280;17770;45.966;13.632;2022-12-18T06:22:51;102000.22;;;12.85;59.97
31121;BME280;17770;45.966;13.632;2022-12-18T06:25:17;102002.81;;;12.84;59.68
31121;BME280;17770;45.966;13.632;2022-12-18T06:27:43;102007.09;;;12.85;59.86
31121;BME280;17770;45.966;13.632;2022-12-18T06:30:10;102007.09;;;12.85;59.72
31121;BME280;17770;45.966;13.632;2022-12-18T06:32:36;102007.13;;;12.83;60.00
31121;BME280;17770;45.966;13.632;2022-12-18T06:35:02;102004.53;;;12.83;60.19
31121;BME280;17770;45.966;13.632;2022-12-18T06:37:27;102008.84;;;12.83;59.31
31121;BME280;17770;45.966;13.632;2022-12-18T06:39:53;102007.16;;;12.82;60.22
31121;BME280;17770;45.966;13.632;2022-12-18T06:42:19;102005.41;;;12.81;59.63
31121;BME280;17770;45.966;13.632;2022-12-18T06:44:45;102015.78;;;12.81;59.61
31121;BME280;17770;45.966;13.632;2022-12-18T06:47:11;102018.34;;;12.81;59.65
31121;BME280;17770;45.966;13.632;2022-12-18T06:49:37;102014.94;;;12.80;60.25
31121;BME280;17770;45.966;13.632;2022-12-18T06:52:03;102005.41;;;12.81;59.28
31121;BME280;17770;45.966;13.632;2022-12-18T06:54:29;102010.63;;;12.79;59.29
31121;BME280;17770;45.966;13.632;2022-12-18T06:56:54;102027.00;;;12.80;59.33
31121;BME280;17770;45.966;13.632;2022-12-18T06:59:20;102038.25;;;12.79;60.27
31121;BME280;17770;45.966;13.632;2022-12-18T07:01:46;102038.25;;;12.79;59.64
31121;BME280;17770;45.966;13.632;2022-12-18T07:04:12;102035.66;;;12.79;59.79
31121;BME280;17770;45.966;13.632;2022-12-18T07:06:38;102047.75;;;12.78;59.43
31121;BME280;17770;45.966;13.632;2022-12-18T07:09:04;102048.63;;;12.76;60.05
31121;BME280;17770;45.966;13.632;2022-12-18T07:11:31;102032.22;;;12.78;60.07
31121;BME280;17770;45.966;13.632;2022-12-18T07:13:57;102037.38;;;12.78;60.02
31121;BME280;17770;45.966;13.632;2022-12-18T07:16:25;102038.28;;;12.77;60.17
31121;BME280;17770;45.966;13.632;2022-12-18T07:18:51;102048.63;;;12.76;59.60
31121;BME280;17770;45.966;13.632;2022-12-18T07:21:19;102057.22;;;12.78;59.51
31121;BME280;17770;45.966;13.632;2022-12-18T07:23:45;102058.97;;;12.76;59.33
31121;BME280;17770;45.966;13.632;2022-12-18T07:26:14;102060.72;;;12.77;59.47
31121;BME280;17770;45.966;13.632;2022-12-18T07:28:40;102069.34;;;12.77;59.38
31121;BME280;17770;45.966;13.632;2022-12-18T07:31:08;102073.66;;;12.77;59.90
31121;BME280;17770;45.966;13.632;2022-12-18T07:33:35;102081.41;;;12.77;59.61
31121;BME280;17770;45.966;13.632;2022-12-18T07:36:01;102090.91;;;12.76;60.15
31121;BME280;17770;45.966;13.632;2022-12-18T07:38:28;102086.63;;;12.75;59.23
31121;BME280;17770;45.966;13.632;2022-12-18T07:40:54;102084.84;;;12.76;59.41
31121;BME280;17770;45.966;13.632;2022-12-18T07:43:20;102087.47;;;12.74;60.45
31121;BME280;17770;45.966;13.632;2022-12-18T07:45:48;102095.25;;;12.73;59.67
31121;BME280;17770;45.966;13.632;2022-12-18T07:48:14;102090.06;;;12.74;59.56
31121;BME280;17770;45.966;13.632;2022-12-18T07:50:40;102091.81;;;12.74;59.14
31121;BME280;17770;45.966;13.632;2022-12-18T07:53:06;102094.41;;;12.74;59.74
31121;BME280;17770;45.966;13.632;2022-12-18T07:55:32;102096.13;;;12.72;59.21
31121;BME280;17770;45.966;13.632;2022-12-18T07:58:00;102097.84;;;12.73;59.76
31121;BME280;17770;45.966;13.632;2022-12-18T08:00:26;102103.88;;;12.73;59.52
31121;BME280;17770;45.966;13.632;2022-12-18T08:02:52;102107.34;;;12.72;58.99
31121;BME280;17770;45.966;13.632;2022-12-18T08:05:18;102109.94;;;12.72;59.67
31121;BME280;17770;45.966;13.632;2022-12-18T08:07:44;102103.91;;;12.72;59.31
31121;BME280;17770;45.966;13.632;2022-12-18T08:10:10;102120.31;;;12.72;58.96
31121;BME280;17770;45.966;13.632;2022-12-18T08:12:36;102113.41;;;12.70;59.32
31121;BME280;17770;45.966;13.632;2022-12-18T08:15:02;102119.44;;;12.70;59.54
31121;BME280;17770;45.966;13.632;2022-12-18T08:17:28;102129.81;;;12.69;59.82
31121;BME280;17770;45.966;13.632;2022-12-18T08:19:54;102124.66;;;12.69;59.79
31121;BME280;17770;45.966;13.632;2022-12-18T08:22:19;102128.06;;;12.69;59.73
31121;BME280;17770;45.966;13.632;2022-12-18T08:24:45;102128.94;;;12.70;59.91
31121;BME280;17770;45.966;13.632;2022-12-18T08:27:11;102131.53;;;12.70;59.45
31121;BME280;17770;45.966;13.632;2022-12-18T08:29:37;102128.09;;;12.71;59.69
31121;BME280;17770;45.966;13.632;2022-12-18T08:32:03;102138.44;;;12.68;59.47
31121;BME280;17770;45.966;13.632;2022-12-18T08:34:29;102140.19;;;12.69;59.36
31121;BME280;17770;45.966;13.632;2022-12-18T08:36:55;102136.72;;;12.68;60.18
31121;BME280;17770;45.966;13.632;2022-12-18T08:39:21;102145.34;;;12.69;59.64
31121;BME280;17770;45.966;13.632;2022-12-18T08:41:47;102144.47;;;12.68;59.15
31121;BME280;17770;45.966;13.632;2022-12-18T08:44:33;102154.84;;;12.68;59.30
31121;BME280;17770;45.966;13.632;2022-12-18T08:47:05;102151.38;;;12.68;59.13
31121;BME280;17770;45.966;13.632;2022-12-18T08:49:31;102160.03;;;12.67;59.65
31121;BME280;17770;45.966;13.632;2022-12-18T08:51:57;102160.03;;;12.67;59.30
31121;BME280;17770;45.966;13.632;2022-12-18T08:54:23;102175.56;;;12.67;59.93
31121;BME280;17770;45.966;13.632;2022-12-18T08:56:50;102175.56;;;12.67;59.82
31121;BME280;17770;45.966;13.632;2022-12-18T08:59:16;102171.25;;;12.66;59.24
31121;BME280;17770;45.966;13.632;2022-12-18T09:01:42;102168.69;;;12.66;59.33
31121;BME280;17770;45.966;13.632;2022-12-18T09:04:09;102182.44;;;12.66;59.57
31121;BME280;17770;45.966;13.632;2022-12-18T09:06:35;102179.88;;;12.66;59.78
31121;BME280;17770;45.966;13.632;2022-12-18T09:09:02;102189.38;;;12.66;60.11
31121;BME280;17770;45.966;13.632;2022-12-18T09:11:28;102197.97;;;12.66;59.81
31121;BME280;17770;45.966;13.632;2022-12-18T09:13:55;102198.00;;;12.65;59.65
31121;BME280;17770;45.966;13.632;2022-12-18T09:16:21;102204.91;;;12.66;59.08
31121;BME280;17770;45.966;13.632;2022-12-18T09:18:48;102198.00;;;12.65;59.45
31121;BME280;17770;45.966;13.632;2022-12-18T09:21:15;102202.31;;;12.64;59.54
31121;BME280;17770;45.966;13.632;2022-12-18T09:23:41;102203.19;;;12.65;59.39
31121;BME280;17770;45.966;13.632;2022-12-18T09:26:07;102202.31;;;12.64;59.24
31121;BME280;17770;45.966;13.632;2022-12-18T09:28:33;102214.41;;;12.64;59.21
31121;BME280;17770;45.966;13.632;2022-12-18T09:31:02;102213.53;;;12.63;59.93
31121;BME280;17770;45.966;13.632;2022-12-18T09:33:28;102217.00;;;12.64;59.86
31121;BME280;17770;45.966;13.632;2022-12-18T09:35:54;102214.41;;;12.64;59.56
31121;BME280;17770;45.966;13.632;2022-12-18T09:38:20;102217.84;;;12.64;59.41
31121;BME280;17770;45.966;13.632;2022-12-18T09:40:47;102217.00;;;12.62;59.18
31121;BME280;17770;45.966;13.632;2022-12-18T09:43:20;102220.44;;;12.63;59.66
31121;BME280;17770;45.966;13.632;2022-12-18T09:45:53;102217.84;;;12.63;59.95
31121;BME280;17770;45.966;13.632;2022-12-18T09:48:23;102213.53;;;12.63;60.37
31121;BME280;17770;45.966;13.632;2022-12-18T09:50:52;102214.41;;;12.64;59.04
31121;BME280;17770;45.966;13.632;2022-12-18T09:53:22;102215.25;;;12.63;59.32
31121;BME280;17770;45.966;13.632;2022-12-18T09:55:50;102210.09;;;12.63;60.05
31121;BME280;17770;45.966;13.632;2022-12-18T09:58:19;102210.09;;;12.61;59.98
31121;BME280;17770;45.966;13.632;2022-12-18T10:00:46;102210.97;;;12.62;59.63
31121;BME280;17770;45.966;13.632;2022-12-18T10:03:12;102202.34;;;12.61;60.00
31121;BME280;17770;45.966;13.632;2022-12-18T10:13:51;102197.16;;;12.63;60.18
31121;BME280;17770;45.966;13.632;2022-12-18T10:21:18;102211.00;;;12.60;59.41
31121;BME280;17770;45.966;13.632;2022-12-18T10:26:10;102214.44;;;12.61;59.29
31121;BME280;17770;45.966;13.632;2022-12-18T10:28:38;102201.50;;;12.59;60.00
31121;BME280;17770;45.966;13.632;2022-12-18T10:31:05;102203.25;;;12.59;59.85
31121;BME280;17770;45.966;13.632;2022-12-18T10:33:32;102204.94;;;12.60;59.97
31121;BME280;17770;45.966;13.632;2022-12-18T10:35:58;102196.31;;;12.59;59.28
31121;BME280;17770;45.966;13.632;2022-12-18T10:38:25;102193.72;;;12.59;59.03
31121;BME280;17770;45.966;13.632;2022-12-18T10:43:24;102189.44;;;12.58;59.39
31121;BME280;17770;45.966;13.632;2022-12-18T10:45:58;102193.72;;;12.59;59.20
31121;BME280;17770;45.966;13.632;2022-12-18T10:48:24;102187.72;;;12.59;59.64
31121;BME280;17770;45.966;13.632;2022-12-18T10:50:50;102189.44;;;12.57;59.22
31121;BME280;17770;45.966;13.632;2022-12-18T10:53:22;102181.69;;;12.57;58.97
31121;BME280;17770;45.966;13.632;2022-12-18T10:55:48;102182.56;;;12.56;59.29
31121;BME280;17770;45.966;13.632;2022-12-18T11:00:50;102173.94;;;12.55;59.33
31121;BME280;17770;45.966;13.632;2022-12-18T11:03:31;102175.66;;;12.55;58.48
31121;BME280;17770;45.966;13.632;2022-12-18T11:06:17;102169.63;;;12.56;59.46
31121;BME280;17770;45.966;13.632;2022-12-18T11:08:44;102158.41;;;12.55;58.94
31121;BME280;17770;45.966;13.632;2022-12-18T11:11:22;102167.88;;;12.56;59.54
31121;BME280;17770;45.966;13.632;2022-12-18T11:14:41;102167.88;;;12.56;59.32
31121;BME280;17770;45.966;13.632;2022-12-18T11:16:45;102170.47;;;12.55;58.83
31121;BME280;17770;45.966;13.632;2022-12-18T11:19:17;102163.59;;;12.55;59.29
31121;BME280;17770;45.966;13.632;2022-12-18T11:21:46;102166.19;;;12.54;59.16
31121;BME280;17770;45.966;13.632;2022-12-18T11:24:18;102166.16;;;12.55;58.70
31121;BME280;17770;45.966;13.632;2022-12-18T11:26:45;102166.16;;;12.55;59.41
31121;BME280;17770;45.966;13.632;2022-12-18T11:29:16;102173.06;;;12.55;59.50
31121;BME280;17770;45.966;13.632;2022-12-18T11:31:42;102164.47;;;12.54;59.24
31121;BME280;17770;45.966;13.632;2022-12-18T11:34:12;102161.88;;;12.54;58.95
31121;BME280;17770;45.966;13.632;2022-12-18T11:36:42;102163.59;;;12.54;59.19
31121;BME280;17770;45.966;13.632;2022-12-18T11:39:20;102165.31;;;12.53;59.04
31121;BME280;17770;45.966;13.632;2022-12-18T11:42:00;102170.50;;;12.53;59.23
31121;BME280;17770;45.966;13.632;2022-12-18T11:44:57;102162.72;;;12.53;58.98
31121;BME280;17770;45.966;13.632;2022-12-18T11:49:47;102159.28;;;12.51;59.47
31121;BME280;17770;45.966;13.632;2022-12-18T11:54:46;102156.72;;;12.50;58.33
31121;BME280;17770;45.966;13.632;2022-12-18T11:59:51;102164.47;;;12.51;59.33
31121;BME280;17770;45.966;13.632;2022-12-18T12:02:24;102160.19;;;12.49;58.83
31121;BME280;17770;45.966;13.632;2022-12-18T12:07:58;102155.00;;;12.50;58.87
31121;BME280;17770;45.966;13.632;2022-12-18T12:13:22;102154.13;;;12.50;59.26
31121;BME280;17770;45.966;13.632;2022-12-18T12:26:14;102140.34;;;12.49;59.41
31121;BME280;17770;45.966;13.632;2022-12-18T12:31:32;102142.94;;;12.51;59.36
31121;BME280;17770;45.966;13.632;2022-12-18T12:36:32;102142.06;;;12.50;58.59
31121;BME280;17770;45.966;13.632;2022-12-18T12:39:05;102139.47;;;12.50;58.79
31121;BME280;17770;45.966;13.632;2022-12-18T12:41:32;102148.97;;;12.50;58.97
31121;BME280;17770;45.966;13.632;2022-12-18T12:44:19;102152.41;;;12.52;59.32
31121;BME280;17770;45.966;13.632;2022-12-18T12:46:45;102152.41;;;12.52;59.08
31121;BME280;17770;45.966;13.632;2022-12-18T12:49:14;102154.13;;;12.50;59.05
31121;BME280;17770;45.966;13.632;2022-12-18T12:51:41;102157.59;;;12.50;59.43
31121;BME280;17770;45.966;13.632;2022-12-18T12:54:14;102167.06;;;12.51;59.07
31121;BME280;17770;45.966;13.632;2022-12-18T12:57:06;102172.22;;;12.51;59.68
31121;BME280;17770;45.966;13.632;2022-12-18T12:59:45;102170.50;;;12.52;59.54
31121;BME280;17770;45.966;13.632;2022-12-18T13:02:24;102178.28;;;12.52;59.43
31121;BME280;17770;45.966;13.632;2022-12-18T13:05:38;102175.69;;;12.50;59.97
31121;BME280;17770;45.966;13.632;2022-12-18T13:07:51;102169.63;;;12.51;58.99
31121;BME280;17770;45.966;13.632;2022-12-18T13:13:09;102176.59;;;12.49;59.33
31121;BME280;17770;45.966;13.632;2022-12-18T13:15:42;102180.88;;;12.50;59.37
31121;BME280;17770;45.966;13.632;2022-12-18T13:23:18;102178.28;;;12.50;59.12
31121;BME280;17770;45.966;13.632;2022-12-18T13:25:45;102184.31;;;12.52;59.57
31121;BME280;17770;45.966;13.632;2022-12-18T13:28:15;102180.88;;;12.52;59.16
31121;BME280;17770;45.966;13.632;2022-12-18T13:41:00;102206.72;;;12.52;59.60
31121;BME280;17770;45.966;13.632;2022-12-18T13:43:27;102201.56;;;12.52;59.33
31121;BME280;17770;45.966;13.632;2022-12-18T13:48:53;102196.38;;;12.52;59.25
31121;BME280;17770;45.966;13.632;2022-12-18T13:51:20;102192.94;;;12.51;59.62
31121;BME280;17770;45.966;13.632;2022-12-18T13:54:05;102196.38;;;12.52;59.36
31121;BME280;17770;45.966;13.632;2022-12-18T13:56:32;102192.94;;;12.51;58.85
31121;BME280;17770;45.966;13.632;2022-12-18T13:59:17;102191.22;;;12.52;59.69
31121;BME280;17770;45.966;13.632;2022-12-18T14:01:47;102194.66;;;12.52;59.33
31121;BME280;17770;45.966;13.632;2022-12-18T14:06:42;102192.91;;;12.53;59.44
31121;BME280;17770;45.966;13.632;2022-12-18T14:09:10;102180.88;;;12.52;59.05
31121;BME280;17770;45.966;13.632;2022-12-18T14:11:38;102177.38;;;12.53;58.85
31121;BME280;17770;45.966;13.632;2022-12-18T14:14:04;102180.88;;;12.52;58.82
31121;BME280;17770;45.966;13.632;2022-12-18T14:16:32;102176.56;;;12.52;59.07
31121;BME280;17770;45.966;13.632;2022-12-18T14:18:59;102174.81;;;12.54;59.08
31121;BME280;17770;45.966;13.632;2022-12-18T14:21:28;102174.81;;;12.53;59.29
31121;BME280;17770;45.966;13.632;2022-12-18T14:26:43;102185.16;;;12.54;59.52
31121;BME280;17770;45.966;13.632;2022-12-18T14:29:20;102176.53;;;12.54;58.58
31121;BME280;17770;45.966;13.632;2022-12-18T14:31:46;102183.41;;;12.55;59.80
31121;BME280;17770;45.966;13.632;2022-12-18T14:34:29;102188.59;;;12.55;59.17
31121;BME280;17770;45.966;13.632;2022-12-18T14:36:55;102187.75;;;12.54;59.86
31121;BME280;17770;45.966;13.632;2022-12-18T14:39:21;102198.94;;;12.55;58.81